createdAt,value
2019-01-05T00:00:17.767Z,0.00
2019-01-05T00:01:17.755Z,0.00
2019-01-05T00:02:17.768Z,0.00
2019-01-05T00:03:17.742Z,0.00
2019-01-05T00:04:17.745Z,0.00
2019-01-05T00:05:17.732Z,0.00
2019-01-05T00:06:17.705Z,0.00
2019-01-05T00:07:17.690Z,0.00
2019-01-05T00:08:17.703Z,0.00
2019-01-05T00:09:17.676Z,0.00
2019-01-05T00:10:17.649Z,0.00
2019-01-05T00:11:17.664Z,0.00
2019-01-05T00:12:17.635Z,0.00
2019-01-05T00:13:17.653Z,0.00
2019-01-05T00:14:17.616Z,0.00
2019-01-05T00:15:17.627Z,0.00
2019-01-05T00:16:17.586Z,0.00
2019-01-05T00:17:17.605Z,0.00
2019-01-05T00:18:17.573Z,0.00
2019-01-05T00:19:17.588Z,0.00
2019-01-05T00:20:17.543Z,0.00
2019-01-05T00:21:19.722Z,0.00
2019-01-05T00:22:17.547Z,0.00
2019-01-05T00:23:17.555Z,0.00
2019-01-05T00:24:17.510Z,0.00
2019-01-05T00:25:17.491Z,0.00
2019-01-05T00:26:17.476Z,0.00
2019-01-05T00:27:17.469Z,0.00
2019-01-05T00:28:17.483Z,0.00
2019-01-05T00:29:17.498Z,0.00
2019-01-05T00:30:17.479Z,0.00
2019-01-05T00:31:17.422Z,0.00
2019-01-05T00:32:17.417Z,0.00
2019-01-05T00:33:17.404Z,0.00
2019-01-05T00:34:17.394Z,0.00
2019-01-05T00:35:17.407Z,0.00
2019-01-05T00:36:17.424Z,0.00
2019-01-05T00:37:17.360Z,0.00
2019-01-05T00:38:17.375Z,0.00
2019-01-05T00:39:17.336Z,0.00
2019-01-05T00:40:17.363Z,0.00
2019-01-05T00:41:17.349Z,0.00
2019-01-05T00:42:17.307Z,0.00
2019-01-05T00:43:17.292Z,0.00
2019-01-05T00:44:17.288Z,0.00
2019-01-05T00:45:17.505Z,0.00
2019-01-05T00:46:17.282Z,0.00
2019-01-05T00:47:17.264Z,0.00
2019-01-05T00:48:17.243Z,0.00
2019-01-05T00:49:17.226Z,0.00
2019-01-05T00:50:17.229Z,0.00
2019-01-05T00:51:17.240Z,0.00
2019-01-05T00:52:17.218Z,0.00
2019-01-05T00:53:17.186Z,0.00
2019-01-05T00:54:17.177Z,0.00
2019-01-05T00:55:17.166Z,0.00
2019-01-05T00:56:17.156Z,0.00
2019-01-05T00:57:17.198Z,0.00
2019-01-05T00:58:17.160Z,0.00
2019-01-05T00:59:17.116Z,0.00
2019-01-05T01:00:17.110Z,0.00
2019-01-05T01:01:17.372Z,0.00
2019-01-05T01:02:17.087Z,0.00
2019-01-05T01:03:17.119Z,0.00
2019-01-05T01:04:17.087Z,0.00
2019-01-05T01:05:17.057Z,0.00
2019-01-05T01:06:17.051Z,0.00
2019-01-05T01:07:17.082Z,0.00
2019-01-05T01:08:17.277Z,0.00
2019-01-05T01:09:17.039Z,0.00
2019-01-05T01:10:17.048Z,0.00
2019-01-05T01:11:17.041Z,0.00
2019-01-05T01:12:17.005Z,0.00
2019-01-05T01:13:16.996Z,0.00
2019-01-05T01:14:17.017Z,0.00
2019-01-05T01:15:16.976Z,0.00
2019-01-05T01:16:16.983Z,0.00
2019-01-05T01:17:16.954Z,0.00
2019-01-05T01:18:16.917Z,0.00
2019-01-05T01:19:16.909Z,0.00
2019-01-05T01:20:16.928Z,0.00
2019-01-05T01:21:16.909Z,0.00
2019-01-05T01:22:16.920Z,0.00
2019-01-05T01:23:16.914Z,0.00
2019-01-05T01:24:16.883Z,0.00
2019-01-05T01:25:16.858Z,0.00
2019-01-05T01:26:16.863Z,0.00
2019-01-05T01:27:16.843Z,0.00
2019-01-05T01:28:16.880Z,0.00
2019-01-05T01:29:16.801Z,0.00
2019-01-05T01:30:16.790Z,0.00
2019-01-05T01:31:16.773Z,0.00
2019-01-05T01:32:16.793Z,0.00
2019-01-05T01:33:16.790Z,0.00
2019-01-05T01:34:16.757Z,0.00
2019-01-05T01:35:16.765Z,0.00
2019-01-05T01:36:16.727Z,0.00
2019-01-05T01:37:16.707Z,0.00
2019-01-05T01:38:16.700Z,0.00
2019-01-05T01:39:16.716Z,0.00
2019-01-05T01:40:16.731Z,0.00
2019-01-05T01:41:16.674Z,0.00
2019-01-05T01:42:16.661Z,0.00
2019-01-05T01:43:16.651Z,0.00
2019-01-05T01:44:16.631Z,0.00
2019-01-05T01:45:16.625Z,0.00
2019-01-05T01:46:16.662Z,0.00
2019-01-05T01:47:16.623Z,0.00
2019-01-05T01:48:16.593Z,0.00
2019-01-05T01:49:16.614Z,0.00
2019-01-05T01:50:16.624Z,0.00
2019-01-05T01:51:16.598Z,0.00
2019-01-05T01:52:16.583Z,0.00
2019-01-05T01:53:16.542Z,0.00
2019-01-05T01:54:16.528Z,0.00
2019-01-05T01:55:16.524Z,0.00
2019-01-05T01:56:16.508Z,0.00
2019-01-05T01:57:16.521Z,0.00
2019-01-05T01:58:16.515Z,0.00
2019-01-05T01:59:16.488Z,0.00
2019-01-05T02:00:16.487Z,0.00
2019-01-05T02:01:16.468Z,0.00
2019-01-05T02:02:16.443Z,0.00
2019-01-05T02:03:16.438Z,0.00
2019-01-05T02:04:16.435Z,0.00
2019-01-05T02:05:16.444Z,0.00
2019-01-05T02:06:16.408Z,0.00
2019-01-05T02:07:16.400Z,0.00
2019-01-05T02:08:16.378Z,0.00
2019-01-05T02:09:16.398Z,0.00
2019-01-05T02:10:16.384Z,0.00
2019-01-05T02:11:16.363Z,0.00
2019-01-05T02:12:16.335Z,0.00
2019-01-05T02:13:16.324Z,0.00
2019-01-05T02:14:16.310Z,0.00
2019-01-05T02:15:16.317Z,0.00
2019-01-05T02:16:16.327Z,0.00
2019-01-05T02:17:16.284Z,0.00
2019-01-05T02:18:16.272Z,0.00
2019-01-05T02:19:16.264Z,0.00
2019-01-05T02:20:16.249Z,0.00
2019-01-05T02:21:16.261Z,0.00
2019-01-05T02:22:16.499Z,0.00
2019-01-05T02:23:16.216Z,0.00
2019-01-05T02:24:16.207Z,0.00
2019-01-05T02:25:16.200Z,0.00
2019-01-05T02:26:16.180Z,0.00
2019-01-05T02:27:16.209Z,0.00
2019-01-05T02:28:16.215Z,0.00
2019-01-05T02:29:16.152Z,0.00
2019-01-05T02:30:16.143Z,0.00
2019-01-05T02:31:16.178Z,0.00
2019-01-05T02:32:16.120Z,0.00
2019-01-05T02:33:16.162Z,0.00
2019-01-05T02:34:16.095Z,0.00
2019-01-05T02:35:16.085Z,0.00
2019-01-05T02:36:16.072Z,0.00
2019-01-05T02:37:16.064Z,0.00
2019-01-05T02:38:16.049Z,0.00
2019-01-05T02:39:16.098Z,0.00
2019-01-05T02:40:16.028Z,0.00
2019-01-05T02:41:16.318Z,0.00
2019-01-05T02:42:16.021Z,0.00
2019-01-05T02:43:15.996Z,0.00
2019-01-05T02:44:15.988Z,0.00
2019-01-05T02:45:16.010Z,0.00
2019-01-05T02:46:15.975Z,0.00
2019-01-05T02:47:15.977Z,0.00
2019-01-05T02:48:15.947Z,0.00
2019-01-05T02:49:15.928Z,0.00
2019-01-05T02:50:15.949Z,0.00
2019-01-05T02:51:15.960Z,0.00
2019-01-05T02:52:15.934Z,0.00
2019-01-05T02:53:15.914Z,0.00
2019-01-05T02:54:15.902Z,0.00
2019-01-05T02:55:15.880Z,0.00
2019-01-05T02:56:15.853Z,0.00
2019-01-05T02:57:15.861Z,0.00
2019-01-05T02:58:15.888Z,0.00
2019-01-05T02:59:16.024Z,0.00
2019-01-05T03:00:15.836Z,0.00
2019-01-05T03:01:15.824Z,0.00
2019-01-05T03:02:15.837Z,0.00
2019-01-05T03:03:15.800Z,0.00
2019-01-05T03:04:15.797Z,0.00
2019-01-05T03:05:15.786Z,0.00
2019-01-05T03:06:15.745Z,0.00
2019-01-05T03:07:15.738Z,0.00
2019-01-05T03:08:15.773Z,0.00
2019-01-05T03:09:15.770Z,0.00
2019-01-05T03:10:15.716Z,0.00
2019-01-05T03:11:15.693Z,0.00
2019-01-05T03:12:15.683Z,0.00
2019-01-05T03:13:15.701Z,0.00
2019-01-05T03:14:15.746Z,0.00
2019-01-05T03:15:15.660Z,0.00
2019-01-05T03:16:15.641Z,0.00
2019-01-05T03:17:15.626Z,0.00
2019-01-05T03:18:15.642Z,0.00
2019-01-05T03:19:15.629Z,0.00
2019-01-05T03:20:15.611Z,0.00
2019-01-05T03:21:15.584Z,0.00
2019-01-05T03:22:15.576Z,0.00
2019-01-05T03:23:15.564Z,0.00
2019-01-05T03:24:15.586Z,0.00
2019-01-05T03:25:15.541Z,0.00
2019-01-05T03:26:15.550Z,0.00
2019-01-05T03:27:15.526Z,0.00
2019-01-05T03:28:15.510Z,0.00
2019-01-05T03:29:15.785Z,0.00
2019-01-05T03:30:15.487Z,0.00
2019-01-05T03:31:15.483Z,0.00
2019-01-05T03:32:15.508Z,0.00
2019-01-05T03:33:15.462Z,0.00
2019-01-05T03:34:15.442Z,0.00
2019-01-05T03:35:15.491Z,0.00
2019-01-05T03:36:15.422Z,0.00
2019-01-05T03:37:15.446Z,0.00
2019-01-05T03:38:15.406Z,0.00
2019-01-05T03:39:15.395Z,0.00
2019-01-05T03:40:15.415Z,0.00
2019-01-05T03:41:15.374Z,0.00
2019-01-05T03:42:15.361Z,0.00
2019-01-05T03:43:15.386Z,0.00
2019-01-05T03:44:15.342Z,0.00
2019-01-05T03:45:15.351Z,0.00
2019-01-05T03:46:15.325Z,0.00
2019-01-05T03:47:15.316Z,0.00
2019-01-05T03:48:15.298Z,0.00
2019-01-05T03:49:15.304Z,0.00
2019-01-05T03:50:15.282Z,0.00
2019-01-05T03:51:15.290Z,0.00
2019-01-05T03:52:15.255Z,0.00
2019-01-05T03:53:15.241Z,0.00
2019-01-05T03:54:15.237Z,0.00
2019-01-05T03:55:15.242Z,0.00
2019-01-05T03:56:15.444Z,0.00
2019-01-05T03:57:15.203Z,0.00
2019-01-05T03:58:15.192Z,0.00
2019-01-05T03:59:15.188Z,0.00
2019-01-05T04:00:15.170Z,0.00
2019-01-05T04:01:15.170Z,0.00
2019-01-05T04:02:15.174Z,0.00
2019-01-05T04:03:15.136Z,0.00
2019-01-05T04:04:15.133Z,0.00
2019-01-05T04:05:15.153Z,0.00
2019-01-05T04:06:15.132Z,0.00
2019-01-05T04:07:15.125Z,0.00
2019-01-05T04:08:15.091Z,0.00
2019-01-05T04:09:15.077Z,0.00
2019-01-05T04:10:15.060Z,0.00
2019-01-05T04:11:15.052Z,0.00
2019-01-05T04:12:15.073Z,0.00
2019-01-05T04:13:15.057Z,0.00
2019-01-05T04:14:15.025Z,0.00
2019-01-05T04:15:15.007Z,0.00
2019-01-05T04:16:14.999Z,0.00
2019-01-05T04:17:14.991Z,0.00
2019-01-05T04:18:15.266Z,0.00
2019-01-05T04:19:14.997Z,0.00
2019-01-05T04:20:14.959Z,0.00
2019-01-05T04:21:14.943Z,0.00
2019-01-05T04:22:14.939Z,0.00
2019-01-05T04:23:14.927Z,0.00
2019-01-05T04:24:14.954Z,0.00
2019-01-05T04:25:14.950Z,0.00
2019-01-05T04:26:14.892Z,0.00
2019-01-05T04:27:14.886Z,0.00
2019-01-05T04:28:14.906Z,0.00
2019-01-05T04:29:14.860Z,0.00
2019-01-05T04:30:14.851Z,0.00
2019-01-05T04:31:14.990Z,0.00
2019-01-05T04:32:14.839Z,0.00
2019-01-05T04:33:14.855Z,0.00
2019-01-05T04:34:14.839Z,0.00
2019-01-05T04:35:14.821Z,0.00
2019-01-05T04:36:14.789Z,0.00
2019-01-05T04:37:14.826Z,0.00
2019-01-05T04:38:14.994Z,0.00
2019-01-05T04:39:14.780Z,0.00
2019-01-05T04:40:14.748Z,0.00
2019-01-05T04:41:14.757Z,0.00
2019-01-05T04:42:14.743Z,0.00
2019-01-05T04:43:14.791Z,0.00
2019-01-05T04:44:14.704Z,0.00
2019-01-05T04:45:14.693Z,0.00
2019-01-05T04:46:14.684Z,0.00
2019-01-05T04:47:14.733Z,0.00
2019-01-05T04:48:14.716Z,0.00
2019-01-05T04:49:14.731Z,0.00
2019-01-05T04:50:14.665Z,0.00
2019-01-05T04:51:14.654Z,0.00
2019-01-05T04:52:14.624Z,0.00
2019-01-05T04:53:14.633Z,0.00
2019-01-05T04:54:14.611Z,0.00
2019-01-05T04:55:14.613Z,0.00
2019-01-05T04:56:14.580Z,0.00
2019-01-05T04:57:14.570Z,0.00
2019-01-05T04:58:14.586Z,0.00
2019-01-05T04:59:14.545Z,0.00
2019-01-05T05:00:14.548Z,0.00
2019-01-05T05:01:14.545Z,0.00
2019-01-05T05:02:14.522Z,0.00
2019-01-05T05:03:14.500Z,0.00
2019-01-05T05:04:14.518Z,0.00
2019-01-05T05:05:14.759Z,0.00
2019-01-05T05:06:14.493Z,0.00
2019-01-05T05:07:14.462Z,0.00
2019-01-05T05:08:14.443Z,0.00
2019-01-05T05:09:14.439Z,0.00
2019-01-05T05:10:14.425Z,0.00
2019-01-05T05:11:14.441Z,0.00
2019-01-05T05:12:14.425Z,0.00
2019-01-05T05:13:14.396Z,0.00
2019-01-05T05:14:14.385Z,0.00
2019-01-05T05:15:14.405Z,0.00
2019-01-05T05:16:14.363Z,0.00
2019-01-05T05:17:14.350Z,0.00
2019-01-05T05:18:14.369Z,0.00
2019-01-05T05:19:14.332Z,0.00
2019-01-05T05:20:14.358Z,0.00
2019-01-05T05:21:14.314Z,0.00
2019-01-05T05:22:14.306Z,0.00
2019-01-05T05:23:14.289Z,0.00
2019-01-05T05:24:14.310Z,0.00
2019-01-05T05:25:14.263Z,0.00
2019-01-05T05:26:14.283Z,0.00
2019-01-05T05:27:14.252Z,0.00
2019-01-05T05:28:14.238Z,0.00
2019-01-05T05:29:14.231Z,0.00
2019-01-05T05:30:14.243Z,0.00
2019-01-05T05:31:14.216Z,0.00
2019-01-05T05:32:14.222Z,0.00
2019-01-05T05:33:14.192Z,0.00
2019-01-05T05:34:14.169Z,0.00
2019-01-05T05:35:14.163Z,0.00
2019-01-05T05:36:14.189Z,0.00
2019-01-05T05:37:14.154Z,0.00
2019-01-05T05:38:14.135Z,0.00
2019-01-05T05:39:14.140Z,0.00
2019-01-05T05:40:14.108Z,0.00
2019-01-05T05:41:14.124Z,0.00
2019-01-05T05:42:14.121Z,0.00
2019-01-05T05:43:14.075Z,0.00
2019-01-05T05:44:14.101Z,0.00
2019-01-05T05:45:14.054Z,0.00
2019-01-05T05:46:14.041Z,0.00
2019-01-05T05:47:14.064Z,0.00
2019-01-05T05:48:14.020Z,0.00
2019-01-05T05:49:14.015Z,0.00
2019-01-05T05:50:14.026Z,0.00
2019-01-05T05:51:13.995Z,0.00
2019-01-05T05:52:14.017Z,0.00
2019-01-05T05:53:13.994Z,0.00
2019-01-05T05:54:13.963Z,0.00
2019-01-05T05:55:13.956Z,0.00
2019-01-05T05:56:13.943Z,0.00
2019-01-05T05:57:13.924Z,0.00
2019-01-05T05:58:13.941Z,0.00
2019-01-05T05:59:13.923Z,0.00
2019-01-05T06:00:13.898Z,0.00
2019-01-05T06:01:13.884Z,0.00
2019-01-05T06:02:13.893Z,0.00
2019-01-05T06:03:13.860Z,0.00
2019-01-05T06:04:13.857Z,0.00
2019-01-05T06:05:13.854Z,0.00
2019-01-05T06:06:13.856Z,0.00
2019-01-05T06:07:13.827Z,0.00
2019-01-05T06:08:13.804Z,0.00
2019-01-05T06:09:13.798Z,0.00
2019-01-05T06:10:13.798Z,0.00
2019-01-05T06:11:13.804Z,0.00
2019-01-05T06:12:13.795Z,0.00
2019-01-05T06:13:13.754Z,0.00
2019-01-05T06:14:13.779Z,0.00
2019-01-05T06:15:13.734Z,0.00
2019-01-05T06:16:13.735Z,0.00
2019-01-05T06:17:13.707Z,0.00
2019-01-05T06:18:13.766Z,0.00
2019-01-05T06:19:13.694Z,0.00
2019-01-05T06:20:13.710Z,0.00
2019-01-05T06:21:13.692Z,0.00
2019-01-05T06:22:13.712Z,0.00
2019-01-05T06:23:13.683Z,0.00
2019-01-05T06:24:13.672Z,0.00
2019-01-05T06:25:13.632Z,0.00
2019-01-05T06:26:13.614Z,0.00
2019-01-05T06:27:13.728Z,0.00
2019-01-05T06:28:13.642Z,0.00
2019-01-05T06:29:13.636Z,0.00
2019-01-05T06:30:13.599Z,0.00
2019-01-05T06:31:13.590Z,0.00
2019-01-05T06:32:13.589Z,0.00
2019-01-05T06:33:13.552Z,0.00
2019-01-05T06:34:13.615Z,0.00
2019-01-05T06:35:13.529Z,0.00
2019-01-05T06:36:13.512Z,0.00
2019-01-05T06:37:13.523Z,0.00
2019-01-05T06:38:13.646Z,0.00
2019-01-05T06:39:13.530Z,0.00
2019-01-05T06:40:13.475Z,0.00
2019-01-05T06:41:13.462Z,0.00
2019-01-05T06:42:13.478Z,0.00
2019-01-05T06:43:13.442Z,0.00
2019-01-05T06:44:13.433Z,0.00
2019-01-05T06:45:13.468Z,0.00
2019-01-05T06:46:13.406Z,0.00
2019-01-05T06:47:13.396Z,0.00
2019-01-05T06:48:13.387Z,0.00
2019-01-05T06:49:13.406Z,0.00
2019-01-05T06:50:13.402Z,0.00
2019-01-05T06:51:13.354Z,0.00
2019-01-05T06:52:13.337Z,0.00
2019-01-05T06:53:13.335Z,0.00
2019-01-05T06:54:13.328Z,0.00
2019-01-05T06:55:13.349Z,0.00
2019-01-05T06:56:13.328Z,0.00
2019-01-05T06:57:13.288Z,0.00
2019-01-05T06:58:13.278Z,0.00
2019-01-05T06:59:13.272Z,0.00
2019-01-05T07:00:13.261Z,0.00
2019-01-05T07:01:13.272Z,0.00
2019-01-05T07:02:13.258Z,0.00
2019-01-05T07:03:13.229Z,0.00
2019-01-05T07:04:13.210Z,0.00
2019-01-05T07:05:13.199Z,0.00
2019-01-05T07:06:13.220Z,0.00
2019-01-05T07:07:13.200Z,0.00
2019-01-05T07:08:13.176Z,0.00
2019-01-05T07:09:13.162Z,0.00
2019-01-05T07:10:13.153Z,0.00
2019-01-05T07:11:13.138Z,0.00
2019-01-05T07:12:13.362Z,0.00
2019-01-05T07:13:13.144Z,0.00
2019-01-05T07:14:13.106Z,0.00
2019-01-05T07:15:13.103Z,0.00
2019-01-05T07:16:13.085Z,0.00
2019-01-05T07:17:13.076Z,0.00
2019-01-05T07:18:13.091Z,4.00
2019-01-05T07:19:13.092Z,4.00
2019-01-05T07:20:13.049Z,4.00
2019-01-05T07:21:13.055Z,0.00
2019-01-05T07:22:13.022Z,4.00
2019-01-05T07:23:13.009Z,4.00
2019-01-05T07:24:13.065Z,4.00
2019-01-05T07:25:13.014Z,8.00
2019-01-05T07:26:12.981Z,4.00
2019-01-05T07:27:13.138Z,4.00
2019-01-05T07:28:13.027Z,8.00
2019-01-05T07:29:12.949Z,8.00
2019-01-05T07:30:12.938Z,8.00
2019-01-05T07:31:12.943Z,8.00
2019-01-05T07:32:13.172Z,8.00
2019-01-05T07:33:12.932Z,12.00
2019-01-05T07:34:12.894Z,12.00
2019-01-05T07:35:12.884Z,8.00
2019-01-05T07:36:12.887Z,8.00
2019-01-05T07:37:12.871Z,8.00
2019-01-05T07:38:12.878Z,12.00
2019-01-05T07:39:12.843Z,12.00
2019-01-05T07:40:12.835Z,12.00
2019-01-05T07:41:12.819Z,16.00
2019-01-05T07:42:12.860Z,12.00
2019-01-05T07:43:12.820Z,12.00
2019-01-05T07:44:12.791Z,16.00
2019-01-05T07:45:12.777Z,16.00
2019-01-05T07:46:12.767Z,20.00
2019-01-05T07:47:12.754Z,20.00
2019-01-05T07:48:12.793Z,24.00
2019-01-05T07:49:12.757Z,20.00
2019-01-05T07:50:12.724Z,24.00
2019-01-05T07:51:12.759Z,20.00
2019-01-05T07:52:12.704Z,24.00
2019-01-05T07:53:12.724Z,24.00
2019-01-05T07:54:12.703Z,24.00
2019-01-05T07:55:12.678Z,28.00
2019-01-05T07:56:12.661Z,24.00
2019-01-05T07:57:12.649Z,28.00
2019-01-05T07:58:12.636Z,32.00
2019-01-05T07:59:12.687Z,36.00
2019-01-05T08:00:12.636Z,40.00
2019-01-05T08:01:12.607Z,36.00
2019-01-05T08:02:12.594Z,40.00
2019-01-05T08:03:12.592Z,48.00
2019-01-05T08:04:12.601Z,44.00
2019-01-05T08:05:12.644Z,56.00
2019-01-05T08:06:12.600Z,52.00
2019-01-05T08:07:12.608Z,60.00
2019-01-05T08:08:12.551Z,60.00
2019-01-05T08:09:12.605Z,64.00
2019-01-05T08:10:12.534Z,80.00
2019-01-05T08:11:12.553Z,88.00
2019-01-05T08:12:12.541Z,92.00
2019-01-05T08:13:12.508Z,100.00
2019-01-05T08:14:12.493Z,92.00
2019-01-05T08:15:12.476Z,76.00
2019-01-05T08:16:12.466Z,80.00
2019-01-05T08:17:12.461Z,84.00
2019-01-05T08:18:12.426Z,92.00
2019-01-05T08:19:12.489Z,88.00
2019-01-05T08:20:12.404Z,92.00
2019-01-05T08:21:12.423Z,108.00
2019-01-05T08:22:12.381Z,116.00
2019-01-05T08:23:12.388Z,116.00
2019-01-05T08:24:12.372Z,112.00
2019-01-05T08:25:12.372Z,116.00
2019-01-05T08:26:12.340Z,100.00
2019-01-05T08:27:12.329Z,108.00
2019-01-05T08:28:12.318Z,92.00
2019-01-05T08:29:12.324Z,104.00
2019-01-05T08:30:12.325Z,116.00
2019-01-05T08:31:12.284Z,120.00
2019-01-05T08:32:12.273Z,132.00
2019-01-05T08:33:12.266Z,152.00
2019-01-05T08:34:12.251Z,164.00
2019-01-05T08:35:12.296Z,164.00
2019-01-05T08:36:12.231Z,160.00
2019-01-05T08:37:12.227Z,148.00
2019-01-05T08:38:12.210Z,148.00
2019-01-05T08:39:12.200Z,148.00
2019-01-05T08:40:12.217Z,156.00
2019-01-05T08:41:12.198Z,152.00
2019-01-05T08:42:12.171Z,144.00
2019-01-05T08:43:12.158Z,136.00
2019-01-05T08:44:12.147Z,128.00
2019-01-05T08:45:12.188Z,136.00
2019-01-05T08:46:12.172Z,144.00
2019-01-05T08:47:12.183Z,152.00
2019-01-05T08:48:12.103Z,160.00
2019-01-05T08:49:12.090Z,160.00
2019-01-05T08:50:12.105Z,140.00
2019-01-05T08:51:12.074Z,160.00
2019-01-05T08:52:12.063Z,188.00
2019-01-05T08:53:12.070Z,208.00
2019-01-05T08:54:12.041Z,232.00
2019-01-05T08:55:12.055Z,216.00
2019-01-05T08:56:12.022Z,196.00
2019-01-05T08:57:12.037Z,204.00
2019-01-05T08:58:12.033Z,192.00
2019-01-05T08:59:13.196Z,180.00
2019-01-05T09:00:12.011Z,196.00
2019-01-05T09:01:11.968Z,176.00
2019-01-05T09:02:11.976Z,180.00
2019-01-05T09:03:11.943Z,200.00
2019-01-05T09:04:11.932Z,200.00
2019-01-05T09:05:11.945Z,232.00
2019-01-05T09:06:11.948Z,224.00
2019-01-05T09:07:11.925Z,204.00
2019-01-05T09:08:11.895Z,200.00
2019-01-05T09:09:11.884Z,204.00
2019-01-05T09:10:11.889Z,224.00
2019-01-05T09:11:11.884Z,256.00
2019-01-05T09:12:11.844Z,260.00
2019-01-05T09:13:11.835Z,268.00
2019-01-05T09:14:11.834Z,260.00
2019-01-05T09:15:11.823Z,228.00
2019-01-05T09:16:11.846Z,216.00
2019-01-05T09:17:11.824Z,216.00
2019-01-05T09:18:11.783Z,200.00
2019-01-05T09:19:11.772Z,220.00
2019-01-05T09:20:11.765Z,240.00
2019-01-05T09:21:11.749Z,268.00
2019-01-05T09:22:11.760Z,272.00
2019-01-05T09:23:11.754Z,280.00
2019-01-05T09:24:11.720Z,280.00
2019-01-05T09:25:11.714Z,276.00
2019-01-05T09:26:11.734Z,332.00
2019-01-05T09:27:11.711Z,340.00
2019-01-05T09:28:11.699Z,328.00
2019-01-05T09:29:11.676Z,304.00
2019-01-05T09:30:11.685Z,284.00
2019-01-05T09:31:11.645Z,276.00
2019-01-05T09:32:11.634Z,356.00
2019-01-05T09:33:11.623Z,348.00
2019-01-05T09:34:11.622Z,360.00
2019-01-05T09:35:11.603Z,356.00
2019-01-05T09:36:11.627Z,332.00
2019-01-05T09:37:11.577Z,340.00
2019-01-05T09:38:11.569Z,344.00
2019-01-05T09:39:11.592Z,328.00
2019-01-05T09:40:11.579Z,308.00
2019-01-05T09:41:11.532Z,332.00
2019-01-05T09:42:11.556Z,344.00
2019-01-05T09:43:11.536Z,304.00
2019-01-05T09:44:11.528Z,320.00
2019-01-05T09:45:11.524Z,320.00
2019-01-05T09:46:11.497Z,316.00
2019-01-05T09:47:11.536Z,320.00
2019-01-05T09:48:11.521Z,324.00
2019-01-05T09:49:11.447Z,312.00
2019-01-05T09:50:11.439Z,372.00
2019-01-05T09:51:11.451Z,352.00
2019-01-05T09:52:11.452Z,372.00
2019-01-05T09:53:11.407Z,344.00
2019-01-05T09:54:11.444Z,324.00
2019-01-05T09:55:11.389Z,296.00
2019-01-05T09:56:11.405Z,324.00
2019-01-05T09:57:11.372Z,404.00
2019-01-05T09:58:11.391Z,352.00
2019-01-05T09:59:11.345Z,376.00
2019-01-05T10:00:11.330Z,348.00
2019-01-05T10:01:11.347Z,360.00
2019-01-05T10:02:11.310Z,376.00
2019-01-05T10:03:11.353Z,344.00
2019-01-05T10:04:11.319Z,348.00
2019-01-05T10:05:11.279Z,348.00
2019-01-05T10:06:11.291Z,320.00
2019-01-05T10:07:11.261Z,356.00
2019-01-05T10:08:11.243Z,344.00
2019-01-05T10:09:11.238Z,348.00
2019-01-05T10:10:11.232Z,324.00
2019-01-05T10:11:11.222Z,332.00
2019-01-05T10:12:11.242Z,340.00
2019-01-05T10:13:11.200Z,324.00
2019-01-05T10:14:11.186Z,360.00
2019-01-05T10:15:11.202Z,396.00
2019-01-05T10:16:11.191Z,412.00
2019-01-05T10:17:11.156Z,364.00
2019-01-05T10:18:11.145Z,344.00
2019-01-05T10:19:11.139Z,312.00
2019-01-05T10:20:11.176Z,324.00
2019-01-05T10:21:11.135Z,356.00
2019-01-05T10:22:11.122Z,360.00
2019-01-05T10:23:11.087Z,360.00
2019-01-05T10:24:11.079Z,308.00
2019-01-05T10:25:11.104Z,396.00
2019-01-05T10:26:11.083Z,416.00
2019-01-05T10:27:11.043Z,388.00
2019-01-05T10:28:11.052Z,404.00
2019-01-05T10:29:11.022Z,432.00
2019-01-05T10:30:11.042Z,452.00
2019-01-05T10:31:11.005Z,412.00
2019-01-05T10:32:11.035Z,404.00
2019-01-05T10:33:11.015Z,376.00
2019-01-05T10:34:10.989Z,440.00
2019-01-05T10:35:10.988Z,424.00
2019-01-05T10:36:10.955Z,464.00
2019-01-05T10:37:10.948Z,408.00
2019-01-05T10:38:10.932Z,436.00
2019-01-05T10:39:10.919Z,424.00
2019-01-05T10:40:10.930Z,424.00
2019-01-05T10:41:10.929Z,404.00
2019-01-05T10:42:10.886Z,396.00
2019-01-05T10:43:10.877Z,420.00
2019-01-05T10:44:10.887Z,504.00
2019-01-05T10:45:10.854Z,468.00
2019-01-05T10:46:10.890Z,460.00
2019-01-05T10:47:10.855Z,456.00
2019-01-05T10:48:10.826Z,480.00
2019-01-05T10:49:11.104Z,416.00
2019-01-05T10:50:10.802Z,456.00
2019-01-05T10:51:10.818Z,468.00
2019-01-05T10:52:10.801Z,508.00
2019-01-05T10:53:10.774Z,504.00
2019-01-05T10:54:10.758Z,524.00
2019-01-05T10:55:10.770Z,508.00
2019-01-05T10:56:10.736Z,484.00
2019-01-05T10:57:10.726Z,480.00
2019-01-05T10:58:10.799Z,440.00
2019-01-05T10:59:10.703Z,492.00
2019-01-05T11:00:10.699Z,504.00
2019-01-05T11:01:10.691Z,484.00
2019-01-05T11:02:10.674Z,528.00
2019-01-05T11:03:10.662Z,544.00
2019-01-05T11:04:10.852Z,600.00
2019-01-05T11:05:10.670Z,584.00
2019-01-05T11:06:10.634Z,512.00
2019-01-05T11:07:10.618Z,548.00
2019-01-05T11:08:10.646Z,608.00
2019-01-05T11:09:10.597Z,636.00
2019-01-05T11:10:10.599Z,600.00
2019-01-05T11:11:10.574Z,572.00
2019-01-05T11:12:10.562Z,516.00
2019-01-05T11:13:10.556Z,536.00
2019-01-05T11:14:10.558Z,564.00
2019-01-05T11:15:10.530Z,560.00
2019-01-05T11:16:10.540Z,516.00
2019-01-05T11:17:10.505Z,580.00
2019-01-05T11:18:10.516Z,600.00
2019-01-05T11:19:10.509Z,696.00
2019-01-05T11:20:10.478Z,520.00
2019-01-05T11:21:10.496Z,456.00
2019-01-05T11:22:10.465Z,392.00
2019-01-05T11:23:10.440Z,388.00
2019-01-05T11:24:10.483Z,404.00
2019-01-05T11:25:10.437Z,392.00
2019-01-05T11:26:10.406Z,440.00
2019-01-05T11:27:10.401Z,480.00
2019-01-05T11:28:10.445Z,404.00
2019-01-05T11:29:10.398Z,388.00
2019-01-05T11:30:10.357Z,332.00
2019-01-05T11:31:10.350Z,376.00
2019-01-05T11:32:10.374Z,368.00
2019-01-05T11:33:10.360Z,324.00
2019-01-05T11:34:10.380Z,368.00
2019-01-05T11:35:10.379Z,352.00
2019-01-05T11:36:10.322Z,396.00
2019-01-05T11:37:10.422Z,380.00
2019-01-05T11:38:10.321Z,420.00
2019-01-05T11:39:10.264Z,344.00
2019-01-05T11:40:10.334Z,388.00
2019-01-05T11:41:10.278Z,452.00
2019-01-05T11:42:10.234Z,436.00
2019-01-05T11:43:10.274Z,440.00
2019-01-05T11:44:10.785Z,368.00
2019-01-05T11:45:10.243Z,360.00
2019-01-05T11:46:10.939Z,276.00
2019-01-05T11:47:10.184Z,352.00
2019-01-05T11:48:10.176Z,448.00
2019-01-05T11:49:10.171Z,320.00
2019-01-05T11:50:10.190Z,340.00
2019-01-05T11:51:10.126Z,348.00
2019-01-05T11:52:10.149Z,392.00
2019-01-05T11:53:10.163Z,344.00
2019-01-05T11:54:10.096Z,332.00
2019-01-05T11:55:10.130Z,356.00
2019-01-05T11:56:10.074Z,388.00
2019-01-05T11:57:10.113Z,360.00
2019-01-05T11:58:10.067Z,320.00
2019-01-05T11:59:10.068Z,356.00
2019-01-05T12:00:10.052Z,384.00
2019-01-05T12:01:10.082Z,380.00
2019-01-05T12:02:10.039Z,356.00
2019-01-05T12:03:10.025Z,404.00
2019-01-05T12:04:09.988Z,436.00
2019-01-05T12:05:09.980Z,424.00
2019-01-05T12:06:09.968Z,444.00
2019-01-05T12:07:09.973Z,468.00
2019-01-05T12:08:09.979Z,452.00
2019-01-05T12:09:09.939Z,416.00
2019-01-05T12:10:09.947Z,348.00
2019-01-05T12:11:09.911Z,320.00
2019-01-05T12:12:09.948Z,368.00
2019-01-05T12:13:09.907Z,380.00
2019-01-05T12:14:09.888Z,356.00
2019-01-05T12:15:09.912Z,384.00
2019-01-05T12:16:09.917Z,400.00
2019-01-05T12:17:09.850Z,412.00
2019-01-05T12:18:09.866Z,376.00
2019-01-05T12:19:09.860Z,420.00
2019-01-05T12:20:09.852Z,468.00
2019-01-05T12:21:10.076Z,528.00
2019-01-05T12:22:09.801Z,424.00
2019-01-05T12:23:09.826Z,388.00
2019-01-05T12:24:09.774Z,344.00
2019-01-05T12:25:09.768Z,352.00
2019-01-05T12:26:09.753Z,376.00
2019-01-05T12:27:09.770Z,360.00
2019-01-05T12:28:09.733Z,352.00
2019-01-05T12:29:09.721Z,372.00
2019-01-05T12:30:09.712Z,384.00
2019-01-05T12:31:09.723Z,360.00
2019-01-05T12:32:09.718Z,400.00
2019-01-05T12:33:09.703Z,420.00
2019-01-05T12:34:09.666Z,400.00
2019-01-05T12:35:09.664Z,368.00
2019-01-05T12:36:09.669Z,388.00
2019-01-05T12:37:09.657Z,400.00
2019-01-05T12:38:09.646Z,376.00
2019-01-05T12:39:09.614Z,424.00
2019-01-05T12:40:09.670Z,364.00
2019-01-05T12:41:09.591Z,412.00
2019-01-05T12:42:09.639Z,448.00
2019-01-05T12:43:09.604Z,452.00
2019-01-05T12:44:09.578Z,396.00
2019-01-05T12:45:09.554Z,396.00
2019-01-05T12:46:09.589Z,404.00
2019-01-05T12:47:09.528Z,408.00
2019-01-05T12:48:09.568Z,388.00
2019-01-05T12:49:09.527Z,440.00
2019-01-05T12:50:09.544Z,408.00
2019-01-05T12:51:09.483Z,476.00
2019-01-05T12:52:09.473Z,456.00
2019-01-05T12:53:09.485Z,396.00
2019-01-05T12:54:09.459Z,420.00
2019-01-05T12:55:09.442Z,408.00
2019-01-05T12:56:09.460Z,408.00
2019-01-05T12:57:09.477Z,448.00
2019-01-05T12:58:09.419Z,460.00